createdAt,value
2023-02-27T00:01:34.447Z,101266.00
2023-02-27T00:04:01.101Z,101269.91
2023-02-27T00:06:28.543Z,101267.69
2023-02-27T00:08:55.061Z,101271.41
2023-02-27T00:11:21.799Z,101258.16
2023-02-27T00:13:48.221Z,101262.38
2023-02-27T00:16:14.811Z,101270.75
2023-02-27T00:18:41.234Z,101273.81
2023-02-27T00:21:07.620Z,101268.47
2023-02-27T00:23:34.062Z,101267.13
2023-02-27T00:26:00.974Z,101262.78
2023-02-27T00:28:28.250Z,101265.44
2023-02-27T00:30:54.792Z,101262.03
2023-02-27T00:33:21.365Z,101267.47
2023-02-27T00:35:58.557Z,101268.97
2023-02-27T00:38:25.006Z,101272.53
2023-02-27T00:40:51.341Z,101270.53
2023-02-27T00:43:17.662Z,101277.22
2023-02-27T00:45:44.082Z,101277.38
2023-02-27T00:48:10.543Z,101273.69
2023-02-27T00:50:37.675Z,101277.13
2023-02-27T00:53:04.151Z,101281.28
2023-02-27T00:55:30.783Z,101282.56
2023-02-27T00:57:57.126Z,101281.28
2023-02-27T01:00:23.583Z,101272.63
2023-02-27T01:02:50.080Z,101288.16
2023-02-27T01:05:16.501Z,101283.81
2023-02-27T01:07:42.869Z,101289.00
2023-02-27T01:10:10.395Z,101279.25
2023-02-27T01:12:36.841Z,101281.72
2023-02-27T01:15:04.836Z,101283.06
2023-02-27T01:17:31.741Z,101280.63
2023-02-27T01:19:58.115Z,101281.88
2023-02-27T01:22:24.566Z,101284.84
2023-02-27T01:24:51.083Z,101280.34
2023-02-27T01:27:17.457Z,101283.66
2023-02-27T01:29:43.920Z,101285.69
2023-02-27T01:32:10.366Z,101282.19
2023-02-27T01:34:36.902Z,101288.63
2023-02-27T01:37:03.479Z,101284.59
2023-02-27T01:39:29.877Z,101288.03
2023-02-27T01:41:56.349Z,101286.94
2023-02-27T01:44:22.843Z,101300.31
2023-02-27T01:46:49.234Z,101288.81
2023-02-27T01:49:31.695Z,101288.72
2023-02-27T01:52:03.214Z,101288.47
2023-02-27T01:54:31.424Z,101281.78
2023-02-27T01:56:57.952Z,101285.78
2023-02-27T01:59:24.398Z,101283.22
2023-02-27T02:01:51.309Z,101282.44
2023-02-27T02:04:30.325Z,101275.16
2023-02-27T02:07:05.979Z,101271.97
2023-02-27T02:09:34.583Z,101273.56
2023-02-27T02:12:00.915Z,101270.97
2023-02-27T02:14:27.577Z,101281.28
2023-02-27T02:17:32.433Z,101275.47
2023-02-27T02:20:20.692Z,101270.28
2023-02-27T02:22:59.774Z,101276.03
2023-02-27T02:25:47.303Z,101279.75
2023-02-27T02:28:17.861Z,101274.66
2023-02-27T02:31:06.611Z,101273.00
2023-02-27T02:33:38.904Z,101280.59
2023-02-27T02:36:22.772Z,101274.41
2023-02-27T02:39:21.699Z,101284.22
2023-02-27T02:41:58.138Z,101284.47
2023-02-27T02:44:28.892Z,101279.16
2023-02-27T02:47:05.126Z,101282.47
2023-02-27T02:49:46.896Z,101284.16
2023-02-27T02:52:20.673Z,101278.22
2023-02-27T02:55:26.845Z,101281.75
2023-02-27T02:58:03.471Z,101287.69
2023-02-27T03:00:41.991Z,101285.28
2023-02-27T03:03:50.795Z,101286.31
2023-02-27T03:06:23.558Z,101287.53
2023-02-27T03:08:55.288Z,101283.09
2023-02-27T03:11:24.091Z,101287.00
2023-02-27T03:13:51.492Z,101286.50
2023-02-27T03:16:25.521Z,101293.66
2023-02-27T03:19:16.838Z,101291.75
2023-02-27T03:22:05.891Z,101292.94
2023-02-27T03:24:37.073Z,101287.53
2023-02-27T03:27:05.682Z,101287.78
2023-02-27T03:29:43.777Z,101283.31
2023-02-27T03:32:23.274Z,101285.75
2023-02-27T03:34:49.764Z,101289.38
2023-02-27T03:37:24.912Z,101298.97
2023-02-27T03:40:01.587Z,101294.47
2023-02-27T03:42:38.354Z,101294.97
2023-02-27T03:45:24.430Z,101297.50
2023-02-27T03:47:51.201Z,101295.63
2023-02-27T03:50:17.838Z,101296.66
2023-02-27T03:52:45.111Z,101303.66
2023-02-27T03:55:25.216Z,101300.38
2023-02-27T03:57:52.417Z,101306.03
2023-02-27T04:00:23.800Z,101303.16
2023-02-27T04:02:51.570Z,101302.56
2023-02-27T04:05:20.006Z,101310.94
2023-02-27T04:08:04.492Z,101326.81
2023-02-27T04:10:50.473Z,101321.25
2023-02-27T04:13:45.907Z,101323.31
2023-02-27T04:16:38.237Z,101318.16
2023-02-27T04:19:17.639Z,101325.03
2023-02-27T04:21:56.181Z,101330.16
2023-02-27T04:24:32.466Z,101334.91
2023-02-27T04:27:02.995Z,101328.13
2023-02-27T04:29:38.155Z,101322.28
2023-02-27T04:32:26.350Z,101328.47
2023-02-27T04:34:59.620Z,101335.56
2023-02-27T04:37:40.902Z,101330.53
2023-02-27T04:40:09.274Z,101329.81
2023-02-27T04:42:39.501Z,101330.06
2023-02-27T04:45:08.466Z,101334.09
2023-02-27T04:47:40.228Z,101328.16
2023-02-27T04:50:13.921Z,101334.22
2023-02-27T04:52:43.299Z,101339.81
2023-02-27T04:55:17.840Z,101346.28
2023-02-27T04:57:49.484Z,101347.47
2023-02-27T05:00:16.803Z,101348.09
2023-02-27T05:02:48.227Z,101344.81
2023-02-27T05:05:17.745Z,101350.28
2023-02-27T05:08:02.240Z,101351.72
2023-02-27T05:10:51.134Z,101348.31
2023-02-27T05:13:21.072Z,101359.72
2023-02-27T05:16:00.081Z,101349.06
2023-02-27T05:18:26.874Z,101356.69
2023-02-27T05:21:22.189Z,101362.50
2023-02-27T05:24:12.411Z,101355.59
2023-02-27T05:26:47.918Z,101368.72
2023-02-27T05:29:27.666Z,101370.63
2023-02-27T05:32:05.170Z,101373.94
2023-02-27T05:34:39.399Z,101377.53
2023-02-27T05:37:11.116Z,101376.22
2023-02-27T05:39:39.618Z,101382.97
2023-02-27T05:42:18.422Z,101376.53
2023-02-27T05:44:51.280Z,101383.50
2023-02-27T05:47:20.874Z,101388.69
2023-02-27T05:49:53.282Z,101389.31
2023-02-27T05:52:23.397Z,101393.53
2023-02-27T05:55:18.801Z,101382.44
2023-02-27T05:57:53.254Z,101392.44
2023-02-27T06:00:34.057Z,101386.44
2023-02-27T06:03:00.760Z,101393.25
2023-02-27T06:05:27.772Z,101399.09
2023-02-27T06:07:54.150Z,101398.69
2023-02-27T06:10:21.345Z,101401.69
2023-02-27T06:12:48.247Z,101400.28
2023-02-27T06:15:15.242Z,101397.13
2023-02-27T06:17:41.621Z,101403.31
2023-02-27T06:20:10.109Z,101403.78
2023-02-27T06:22:36.509Z,101404.00
2023-02-27T06:25:03.363Z,101411.03
2023-02-27T06:27:29.845Z,101409.69
2023-02-27T06:29:57.574Z,101407.38
2023-02-27T06:32:25.634Z,101413.41
2023-02-27T06:34:52.888Z,101414.44
2023-02-27T06:37:19.311Z,101425.78
2023-02-27T06:39:45.740Z,101427.25
2023-02-27T06:42:12.298Z,101419.56
2023-02-27T06:44:38.679Z,101425.91
2023-02-27T06:47:05.135Z,101427.34
2023-02-27T06:49:31.805Z,101428.69
2023-02-27T06:51:58.196Z,101431.69
2023-02-27T06:54:24.619Z,101434.72
2023-02-27T06:56:51.834Z,101428.53
2023-02-27T06:59:18.268Z,101433.56
2023-02-27T07:01:44.700Z,101428.69
2023-02-27T07:04:14.804Z,101432.66
2023-02-27T07:07:35.189Z,101431.78
2023-02-27T07:09:28.241Z,101437.09
2023-02-27T07:11:54.631Z,101439.56
2023-02-27T07:14:21.112Z,101447.16
2023-02-27T07:16:50.788Z,101431.50
2023-02-27T07:19:18.499Z,101442.78
2023-02-27T07:21:44.943Z,101431.78
2023-02-27T07:24:11.353Z,101431.97
2023-02-27T07:26:37.904Z,101441.19
2023-02-27T07:29:04.604Z,101442.88
2023-02-27T07:31:31.011Z,101442.97
2023-02-27T07:33:57.398Z,101435.28
2023-02-27T07:36:27.661Z,101435.63
2023-02-27T07:38:54.263Z,101448.16
2023-02-27T07:41:30.044Z,101437.56
2023-02-27T07:43:56.849Z,101443.59
2023-02-27T07:46:24.587Z,101443.00
2023-02-27T07:48:51.001Z,101442.84
2023-02-27T07:51:17.376Z,101445.94
2023-02-27T07:53:43.730Z,101444.69
2023-02-27T07:56:10.131Z,101444.75
2023-02-27T07:58:36.470Z,101443.00
2023-02-27T08:01:02.804Z,101449.16
2023-02-27T08:03:29.201Z,101455.28
2023-02-27T08:05:55.564Z,101454.50
2023-02-27T08:08:21.947Z,101457.31
2023-02-27T08:10:49.983Z,101463.00
2023-02-27T08:13:18.018Z,101458.59
2023-02-27T08:15:47.167Z,101465.28
2023-02-27T08:18:13.620Z,101466.03
2023-02-27T08:20:39.997Z,101461.88
2023-02-27T08:23:06.915Z,101465.94
2023-02-27T08:25:33.631Z,101473.16
2023-02-27T08:28:00.002Z,101474.66
2023-02-27T08:30:26.391Z,101483.47
2023-02-27T08:32:53.098Z,101478.81
2023-02-27T08:35:19.889Z,101480.91
2023-02-27T08:37:46.302Z,101481.00
2023-02-27T08:40:12.788Z,101489.38
2023-02-27T08:42:39.171Z,101476.94
2023-02-27T08:45:06.246Z,101476.97
2023-02-27T08:47:32.598Z,101478.69
2023-02-27T08:49:58.935Z,101487.34
2023-02-27T08:52:25.267Z,101484.50
2023-02-27T08:54:51.801Z,101487.44
2023-02-27T08:57:18.215Z,101483.78
2023-02-27T08:59:44.770Z,101487.84
2023-02-27T09:02:11.601Z,101482.34
2023-02-27T09:04:38.028Z,101476.38
2023-02-27T09:07:04.421Z,101478.78
2023-02-27T09:09:30.830Z,101480.28
2023-02-27T09:11:57.288Z,101470.66
2023-02-27T09:14:24.082Z,101481.03
2023-02-27T09:16:50.535Z,101467.66
2023-02-27T09:19:16.989Z,101475.09
2023-02-27T09:21:43.422Z,101475.63
2023-02-27T09:24:19.338Z,101474.84
2023-02-27T09:26:46.857Z,101489.66
2023-02-27T09:29:13.387Z,101480.84
2023-02-27T09:31:39.872Z,101494.84
2023-02-27T09:34:06.301Z,101490.19
2023-02-27T09:36:32.735Z,101498.69
2023-02-27T09:38:59.659Z,101495.75
2023-02-27T09:41:44.945Z,101504.50
2023-02-27T09:44:47.332Z,101506.25
2023-02-27T09:47:18.740Z,101493.25
2023-02-27T09:50:12.004Z,101510.28
2023-02-27T09:52:39.425Z,101509.06
2023-02-27T09:55:12.242Z,101511.16
2023-02-27T09:57:48.961Z,101519.63
2023-02-27T10:00:29.067Z,101513.53
2023-02-27T10:03:07.710Z,101525.06
2023-02-27T10:05:58.724Z,101512.69
2023-02-27T10:08:30.450Z,101519.47
2023-02-27T10:11:03.640Z,101529.31
2023-02-27T10:13:39.454Z,101524.88
2023-02-27T10:16:06.994Z,101513.22
2023-02-27T10:18:39.950Z,101518.59
2023-02-27T10:21:10.435Z,101511.28
2023-02-27T10:23:56.549Z,101515.53
2023-02-27T10:26:30.096Z,101508.31
2023-02-27T10:29:12.013Z,101517.59
2023-02-27T10:31:38.744Z,101517.53
2023-02-27T10:34:05.427Z,101511.38
2023-02-27T10:36:34.542Z,101502.47
2023-02-27T10:39:11.828Z,101501.59
2023-02-27T10:41:40.045Z,101506.31
2023-02-27T10:44:06.692Z,101505.88
2023-02-27T10:46:36.081Z,101497.03
2023-02-27T10:49:05.756Z,101494.13
2023-02-27T10:51:36.912Z,101497.75
2023-02-27T10:54:19.898Z,101496.25
2023-02-27T10:56:49.194Z,101501.97
2023-02-27T10:59:23.672Z,101492.94
2023-02-27T11:01:53.684Z,101488.84
2023-02-27T11:04:36.594Z,101485.88
2023-02-27T11:07:06.520Z,101478.06
2023-02-27T11:09:34.034Z,101480.38
2023-02-27T11:12:27.710Z,101468.75
2023-02-27T11:14:57.351Z,101467.81
2023-02-27T11:17:30.004Z,101461.72
2023-02-27T11:19:57.710Z,101457.22
2023-02-27T11:22:27.102Z,101461.16
2023-02-27T11:25:17.144Z,101476.09
2023-02-27T11:27:46.016Z,101472.97
2023-02-27T11:30:31.448Z,101456.66
2023-02-27T11:32:59.826Z,101458.91
2023-02-27T11:35:32.401Z,101452.72
2023-02-27T11:38:20.722Z,101445.97
2023-02-27T11:40:56.230Z,101442.03
2023-02-27T11:43:47.872Z,101450.38
2023-02-27T11:46:46.281Z,101442.84
2023-02-27T11:49:28.611Z,101443.16
2023-02-27T11:52:03.924Z,101425.72
2023-02-27T11:54:49.296Z,101429.38
2023-02-27T11:57:27.465Z,101428.81
2023-02-27T12:00:19.693Z,101438.34
2023-02-27T12:03:05.206Z,101438.06
2023-02-27T12:05:56.189Z,101432.41
2023-02-27T12:08:25.489Z,101427.56
2023-02-27T12:11:07.739Z,101417.22
2023-02-27T12:13:40.117Z,101415.03
2023-02-27T12:16:21.859Z,101420.09
2023-02-27T12:18:52.994Z,101408.19
2023-02-27T12:21:24.619Z,101401.66
2023-02-27T12:23:55.817Z,101404.69
2023-02-27T12:26:39.827Z,101387.91
2023-02-27T12:29:55.070Z,101377.66
2023-02-27T12:32:28.505Z,101378.84
2023-02-27T12:35:00.333Z,101385.59
2023-02-27T12:37:28.873Z,101375.13
2023-02-27T12:39:58.765Z,101378.34
2023-02-27T12:42:37.426Z,101375.53
2023-02-27T12:45:21.853Z,101359.66
2023-02-27T12:48:25.658Z,101365.50
2023-02-27T12:50:54.305Z,101385.94
2023-02-27T12:53:57.627Z,101371.41
2023-02-27T12:56:30.385Z,101367.84
2023-02-27T12:59:02.620Z,101369.38
2023-02-27T13:01:39.588Z,101369.00
2023-02-27T13:04:26.299Z,101378.16
2023-02-27T13:07:05.284Z,101379.09
2023-02-27T13:09:49.785Z,101361.22
2023-02-27T13:12:32.304Z,101364.25
2023-02-27T13:15:27.010Z,101371.38
2023-02-27T13:18:03.403Z,101378.00
2023-02-27T13:20:35.821Z,101373.53
2023-02-27T13:23:08.471Z,101377.69
2023-02-27T13:25:37.032Z,101374.69
2023-02-27T13:28:07.627Z,101376.13
2023-02-27T13:30:40.939Z,101369.19
2023-02-27T13:33:26.121Z,101381.00
2023-02-27T13:36:11.369Z,101373.97
2023-02-27T13:38:48.688Z,101368.66
2023-02-27T13:41:21.022Z,101358.97
2023-02-27T13:43:52.505Z,101357.25
2023-02-27T13:46:30.186Z,101353.78
2023-02-27T13:49:05.835Z,101356.88
2023-02-27T13:51:35.060Z,101367.94
2023-02-27T13:54:13.695Z,101358.25
2023-02-27T13:56:44.986Z,101357.53
2023-02-27T13:59:29.937Z,101358.34
2023-02-27T14:01:59.244Z,101362.00
2023-02-27T14:04:34.440Z,101365.66
2023-02-27T14:07:07.386Z,101361.47
2023-02-27T14:09:37.008Z,101352.50
2023-02-27T14:12:06.279Z,101359.22
2023-02-27T14:14:44.972Z,101369.44
2023-02-27T14:17:37.151Z,101364.91
2023-02-27T14:20:12.388Z,101371.94
2023-02-27T14:23:16.646Z,101368.28
2023-02-27T14:25:53.391Z,101368.09
2023-02-27T14:28:26.159Z,101363.22
2023-02-27T14:31:01.149Z,101365.53
2023-02-27T14:33:41.349Z,101362.72
2023-02-27T14:36:14.012Z,101367.16
2023-02-27T14:38:41.044Z,101358.38
2023-02-27T14:41:12.244Z,101366.31
2023-02-27T14:43:45.604Z,101363.75
2023-02-27T14:46:20.531Z,101373.75
2023-02-27T14:48:46.963Z,101369.28
2023-02-27T14:51:15.065Z,101373.22
2023-02-27T14:53:41.576Z,101370.09
2023-02-27T14:56:18.055Z,101376.88
2023-02-27T14:58:55.500Z,101368.28
2023-02-27T15:01:25.845Z,101366.81
2023-02-27T15:03:56.859Z,101362.47
2023-02-27T15:06:35.968Z,101357.97
2023-02-27T15:09:03.217Z,101359.75
2023-02-27T15:11:30.118Z,101366.41
2023-02-27T15:13:59.354Z,101363.09
2023-02-27T15:16:37.324Z,101368.88
2023-02-27T15:19:18.067Z,101364.03
2023-02-27T15:21:52.664Z,101369.22
2023-02-27T15:24:40.671Z,101370.38
2023-02-27T15:27:21.485Z,101356.88
2023-02-27T15:29:51.808Z,101366.47
2023-02-27T15:32:32.492Z,101360.19
2023-02-27T15:35:04.740Z,101360.22
2023-02-27T15:37:33.596Z,101350.75
2023-02-27T15:40:00.953Z,101364.81
2023-02-27T15:42:30.492Z,101371.19
2023-02-27T15:44:58.395Z,101366.50
2023-02-27T15:47:30.062Z,101371.34
2023-02-27T15:50:08.925Z,101374.34
2023-02-27T15:53:02.693Z,101378.91
2023-02-27T15:55:38.753Z,101372.19
2023-02-27T15:58:30.369Z,101378.91
2023-02-27T16:01:08.530Z,101373.88
2023-02-27T16:03:37.908Z,101386.28
2023-02-27T16:06:34.543Z,101393.34
2023-02-27T16:09:27.401Z,101388.56
2023-02-27T16:12:23.047Z,101399.53
2023-02-27T16:14:54.542Z,101402.06
2023-02-27T16:17:29.405Z,101398.69
2023-02-27T16:19:56.945Z,101396.72
2023-02-27T16:22:23.413Z,101404.31
2023-02-27T16:24:50.721Z,101409.38
2023-02-27T16:27:25.531Z,101413.88
2023-02-27T16:29:54.375Z,101415.31
2023-02-27T16:32:45.807Z,101422.06
2023-02-27T16:35:23.096Z,101427.09
2023-02-27T16:37:50.662Z,101425.97
2023-02-27T16:40:18.259Z,101426.78
2023-02-27T16:42:45.111Z,101435.81
2023-02-27T16:45:17.447Z,101438.59
2023-02-27T16:47:44.151Z,101438.03
2023-02-27T16:50:19.867Z,101440.00
2023-02-27T16:52:46.263Z,101441.97
2023-02-27T16:55:12.631Z,101439.97
2023-02-27T16:57:39.109Z,101445.59
2023-02-27T17:00:07.718Z,101448.94
2023-02-27T17:02:34.339Z,101451.25
2023-02-27T17:05:01.492Z,101456.88
2023-02-27T17:07:27.897Z,101453.19
2023-02-27T17:09:54.285Z,101456.59
2023-02-27T17:15:20.599Z,101457.69
2023-02-27T17:17:46.939Z,101463.59
2023-02-27T17:20:14.514Z,101470.03
2023-02-27T17:22:42.866Z,101468.34
2023-02-27T17:25:14.255Z,101468.34
2023-02-27T17:27:43.261Z,101473.13
2023-02-27T17:30:10.504Z,101468.28
2023-02-27T17:32:37.056Z,101472.53
2023-02-27T17:35:04.052Z,101472.19
2023-02-27T17:37:30.550Z,101479.78
2023-02-27T17:39:57.046Z,101478.31
2023-02-27T17:42:25.584Z,101480.84
2023-02-27T17:44:52.034Z,101482.22
2023-02-27T17:47:18.460Z,101492.28
2023-02-27T17:49:44.802Z,101490.03
2023-02-27T17:52:11.413Z,101489.69
2023-02-27T17:54:37.954Z,101486.59
2023-02-27T17:57:06.546Z,101493.00
2023-02-27T17:59:33.436Z,101493.84
2023-02-27T18:01:59.812Z,101501.69
2023-02-27T18:04:26.417Z,101507.84
2023-02-27T18:06:53.165Z,101514.50
2023-02-27T18:09:19.545Z,101520.16
2023-02-27T18:11:46.038Z,101514.78
2023-02-27T18:14:12.441Z,101515.19
2023-02-27T18:16:38.947Z,101520.91
2023-02-27T18:19:06.367Z,101518.63
2023-02-27T18:21:33.251Z,101518.22
2023-02-27T18:23:59.918Z,101530.34
2023-02-27T18:26:31.888Z,101517.88
2023-02-27T18:29:05.442Z,101531.09
2023-02-27T18:31:40.172Z,101527.44
2023-02-27T18:34:06.977Z,101526.91
2023-02-27T18:36:34.266Z,101527.16
2023-02-27T18:39:01.080Z,101520.50
2023-02-27T18:41:28.179Z,101515.47
2023-02-27T18:43:54.665Z,101519.66
2023-02-27T18:46:21.203Z,101517.19
2023-02-27T18:48:48.368Z,101525.53
2023-02-27T18:51:16.170Z,101525.56
2023-02-27T18:53:44.932Z,101527.84
2023-02-27T18:56:16.562Z,101527.53
2023-02-27T18:58:43.679Z,101530.34
2023-02-27T19:01:19.269Z,101529.75
2023-02-27T19:03:46.170Z,101531.09
2023-02-27T19:06:13.488Z,101527.69
2023-02-27T19:08:40.120Z,101520.38
2023-02-27T19:11:06.620Z,101529.38
2023-02-27T19:13:33.039Z,101532.09
2023-02-27T19:16:02.918Z,101529.31
2023-02-27T19:18:29.711Z,101528.13
2023-02-27T19:20:57.374Z,101531.94
2023-02-27T19:23:23.970Z,101534.50
2023-02-27T19:25:58.283Z,101535.19
2023-02-27T19:28:24.774Z,101539.16
2023-02-27T19:30:51.104Z,101539.63
2023-02-27T19:33:17.666Z,101537.56
2023-02-27T19:35:44.083Z,101534.91
2023-02-27T19:38:10.709Z,101543.56
2023-02-27T19:40:37.112Z,101539.41
2023-02-27T19:43:03.578Z,101549.44
2023-02-27T19:45:30.050Z,101548.31
2023-02-27T19:47:56.442Z,101550.53
2023-02-27T19:50:22.778Z,101554.16
2023-02-27T19:52:49.126Z,101552.75
2023-02-27T19:55:15.623Z,101556.63
2023-02-27T19:57:42.430Z,101557.41
2023-02-27T20:00:10.022Z,101555.09
2023-02-27T20:02:36.380Z,101554.59
2023-02-27T20:05:03.170Z,101548.97
2023-02-27T20:07:30.332Z,101560.25
2023-02-27T20:09:56.694Z,101561.94
2023-02-27T20:12:23.581Z,101559.66
2023-02-27T20:14:50.142Z,101559.47
2023-02-27T20:17:16.563Z,101561.31
2023-02-27T20:19:43.014Z,101556.84
2023-02-27T20:22:09.804Z,101562.16
2023-02-27T20:24:36.287Z,101559.97
2023-02-27T20:27:02.853Z,101565.25
2023-02-27T20:29:29.341Z,101570.00
2023-02-27T20:31:57.222Z,101566.06
2023-02-27T20:34:26.330Z,101563.25
2023-02-27T20:36:54.758Z,101567.50
2023-02-27T20:39:23.427Z,101564.09
2023-02-27T20:41:50.013Z,101563.56
2023-02-27T20:44:16.521Z,101557.09
2023-02-27T20:46:43.697Z,101560.19
2023-02-27T20:49:11.580Z,101566.94
2023-02-27T20:51:39.239Z,101560.72
2023-02-27T20:54:08.410Z,101557.44
2023-02-27T20:56:38.150Z,101561.03
2023-02-27T20:59:06.362Z,101548.91
2023-02-27T21:01:33.149Z,101557.50
2023-02-27T21:04:00.278Z,101546.00
2023-02-27T21:06:27.452Z,101549.38
2023-02-27T21:08:55.740Z,101551.06
2023-02-27T21:11:28.099Z,101541.53
2023-02-27T21:13:55.928Z,101553.81
2023-02-27T21:16:24.204Z,101558.91
2023-02-27T21:18:51.430Z,101553.84
2023-02-27T21:21:22.702Z,101558.50
2023-02-27T21:23:49.321Z,101555.69
2023-02-27T21:26:40.479Z,101555.06
2023-02-27T21:29:09.826Z,101554.72
2023-02-27T21:31:37.326Z,101542.31
2023-02-27T21:34:06.987Z,101553.03
2023-02-27T21:36:35.800Z,101530.88
2023-02-27T21:39:05.456Z,101542.91
2023-02-27T21:41:32.137Z,101540.38
2023-02-27T21:43:59.352Z,101543.72
2023-02-27T21:46:26.067Z,101537.09
2023-02-27T21:48:52.560Z,101537.78
2023-02-27T21:51:33.016Z,101537.44
2023-02-27T21:54:05.231Z,101538.81
2023-02-27T21:56:31.812Z,101542.13
2023-02-27T21:59:01.129Z,101539.31
2023-02-27T22:01:28.637Z,101534.97
2023-02-27T22:03:55.295Z,101544.28
2023-02-27T22:06:27.127Z,101543.09
2023-02-27T22:08:58.264Z,101544.78
2023-02-27T22:11:26.752Z,101541.25
2023-02-27T22:13:53.467Z,101543.19
2023-02-27T22:16:20.406Z,101547.34
2023-02-27T22:18:47.706Z,101547.59
2023-02-27T22:21:17.232Z,101546.97
2023-02-27T22:23:46.911Z,101546.03
2023-02-27T22:26:15.981Z,101547.72
2023-02-27T22:28:42.602Z,101550.72
2023-02-27T22:31:20.703Z,101547.91
2023-02-27T22:33:49.941Z,101546.13
2023-02-27T22:36:29.065Z,101556.22
2023-02-27T22:38:56.019Z,101550.47
2023-02-27T22:41:25.059Z,101553.56
2023-02-27T22:43:51.507Z,101554.00
2023-02-27T22:46:28.338Z,101551.81
2023-02-27T22:48:56.278Z,101555.00
2023-02-27T22:51:24.661Z,101553.91
2023-02-27T22:53:51.677Z,101551.13
2023-02-27T22:56:18.046Z,101557.31
2023-02-27T22:58:45.428Z,101553.06
2023-02-27T23:01:13.411Z,101548.41
2023-02-27T23:03:40.634Z,101545.34
2023-02-27T23:06:09.100Z,101545.41
2023-02-27T23:08:35.850Z,101551.31
2023-02-27T23:11:02.482Z,101557.16
2023-02-27T23:13:29.034Z,101555.50
2023-02-27T23:15:55.465Z,101551.03
2023-02-27T23:18:21.980Z,101547.81
2023-02-27T23:20:48.384Z,101551.63
2023-02-27T23:23:14.885Z,101552.22
2023-02-27T23:25:41.618Z,101555.22
2023-02-27T23:28:08.048Z,101545.63
2023-02-27T23:30:34.640Z,101555.38
2023-02-27T23:33:01.331Z,101559.25
2023-02-27T23:35:28.629Z,101552.75
2023-02-27T23:37:56.933Z,101556.91
2023-02-27T23:40:24.150Z,101555.81
2023-02-27T23:42:50.646Z,101558.25
2023-02-27T23:45:23.145Z,101556.81
2023-02-27T23:47:54.688Z,101545.44
2023-02-27T23:50:23.544Z,101547.75
2023-02-27T23:52:51.148Z,101554.59
2023-02-27T23:55:18.933Z,101550.94
2023-02-27T23:57:45.764Z,101546.53
